sensor_id;sensor_type;location;lat;lon;timestamp;P1;durP1;ratioP1;P2;durP2;ratioP2
63203;SDS011;49297;43.210;27.914;2022-08-04T00:00:09;11.13;;;7.97;;
63203;SDS011;49297;43.210;27.914;2022-08-04T00:05:06;5.53;;;5.03;;
63203;SDS011;49297;43.210;27.914;2022-08-04T00:07:45;5.50;;;4.25;;
63203;SDS011;49297;43.210;27.914;2022-08-04T00:10:17;6.05;;;5.47;;
63203;SDS011;49297;43.210;27.914;2022-08-04T00:12:46;6.15;;;5.55;;
63203;SDS011;49297;43.210;27.914;2022-08-04T00:15:14;7.55;;;6.65;;
63203;SDS011;49297;43.210;27.914;2022-08-04T00:17:45;10.05;;;7.70;;
63203;SDS011;49297;43.210;27.914;2022-08-04T00:20:18;10.88;;;7.95;;
63203;SDS011;49297;43.210;27.914;2022-08-04T00:22:46;10.07;;;7.78;;
63203;SDS011;49297;43.210;27.914;2022-08-04T00:25:13;8.63;;;7.68;;
63203;SDS011;49297;43.210;27.914;2022-08-04T00:27:39;11.52;;;8.02;;
63203;SDS011;49297;43.210;27.914;2022-08-04T00:30:05;9.60;;;8.23;;
63203;SDS011;49297;43.210;27.914;2022-08-04T00:32:32;13.77;;;8.75;;
63203;SDS011;49297;43.210;27.914;2022-08-04T00:34:58;10.68;;;7.80;;
63203;SDS011;49297;43.210;27.914;2022-08-04T00:37:25;8.13;;;7.25;;
63203;SDS011;49297;43.210;27.914;2022-08-04T00:39:55;8.68;;;7.72;;
63203;SDS011;49297;43.210;27.914;2022-08-04T00:47:50;10.43;;;7.07;;
63203;SDS011;49297;43.210;27.914;2022-08-04T01:04:05;11.20;;;8.35;;
63203;SDS011;49297;43.210;27.914;2022-08-04T01:15:12;15.80;;;6.45;;
63203;SDS011;49297;43.210;27.914;2022-08-04T01:20:14;11.15;;;7.10;;
63203;SDS011;49297;43.210;27.914;2022-08-04T01:29:06;10.95;;;6.63;;
63203;SDS011;49297;43.210;27.914;2022-08-04T01:34:38;9.68;;;7.55;;
63203;SDS011;49297;43.210;27.914;2022-08-04T01:38:15;11.05;;;7.50;;
63203;SDS011;49297;43.210;27.914;2022-08-04T01:40:32;11.15;;;8.88;;
63203;SDS011;49297;43.210;27.914;2022-08-04T01:43:01;10.73;;;7.20;;
63203;SDS011;49297;43.210;27.914;2022-08-04T01:45:29;26.77;;;9.30;;
63203;SDS011;49297;43.210;27.914;2022-08-04T01:47:55;10.38;;;8.85;;
63203;SDS011;49297;43.210;27.914;2022-08-04T01:50:22;13.18;;;8.13;;
63203;SDS011;49297;43.210;27.914;2022-08-04T01:52:51;11.20;;;8.00;;
63203;SDS011;49297;43.210;27.914;2022-08-04T01:55:19;13.32;;;7.18;;
63203;SDS011;49297;43.210;27.914;2022-08-04T01:57:48;19.63;;;7.07;;
63203;SDS011;49297;43.210;27.914;2022-08-04T02:00:16;12.38;;;8.00;;
63203;SDS011;49297;43.210;27.914;2022-08-04T02:02:44;7.68;;;6.88;;
63203;SDS011;49297;43.210;27.914;2022-08-04T02:05:11;11.32;;;7.55;;
63203;SDS011;49297;43.210;27.914;2022-08-04T02:15:41;11.05;;;7.57;;
63203;SDS011;49297;43.210;27.914;2022-08-04T02:21:33;14.13;;;7.63;;
63203;SDS011;49297;43.210;27.914;2022-08-04T02:24:02;8.18;;;5.65;;
63203;SDS011;49297;43.210;27.914;2022-08-04T02:26:31;7.82;;;7.13;;
63203;SDS011;49297;43.210;27.914;2022-08-04T02:34:24;12.00;;;7.57;;
63203;SDS011;49297;43.210;27.914;2022-08-04T02:36:53;6.25;;;5.65;;
63203;SDS011;49297;43.210;27.914;2022-08-04T02:39:20;11.40;;;6.00;;
63203;SDS011;49297;43.210;27.914;2022-08-04T02:41:47;8.35;;;6.18;;
63203;SDS011;49297;43.210;27.914;2022-08-04T02:44:19;7.53;;;6.78;;
63203;SDS011;49297;43.210;27.914;2022-08-04T02:46:46;7.13;;;6.38;;
63203;SDS011;49297;43.210;27.914;2022-08-04T02:49:16;12.68;;;6.80;;
63203;SDS011;49297;43.210;27.914;2022-08-04T02:51:49;18.33;;;6.65;;
63203;SDS011;49297;43.210;27.914;2022-08-04T02:54:17;15.00;;;6.43;;
63203;SDS011;49297;43.210;27.914;2022-08-04T02:56:47;16.13;;;7.00;;
63203;SDS011;49297;43.210;27.914;2022-08-04T02:59:15;7.15;;;5.60;;
63203;SDS011;49297;43.210;27.914;2022-08-04T03:01:44;12.52;;;5.03;;
63203;SDS011;49297;43.210;27.914;2022-08-04T03:12:21;10.93;;;5.40;;
63203;SDS011;49297;43.210;27.914;2022-08-04T03:15:24;8.50;;;5.95;;
63203;SDS011;49297;43.210;27.914;2022-08-04T03:20:49;9.75;;;6.43;;
63203;SDS011;49297;43.210;27.914;2022-08-04T03:23:21;16.55;;;6.50;;
63203;SDS011;49297;43.210;27.914;2022-08-04T04:00:37;9.68;;;5.90;;
63203;SDS011;49297;43.210;27.914;2022-08-04T04:03:22;7.53;;;5.57;;
63203;SDS011;49297;43.210;27.914;2022-08-04T04:08:59;10.57;;;7.03;;
63203;SDS011;49297;43.210;27.914;2022-08-04T04:39:12;9.07;;;4.95;;
63203;SDS011;49297;43.210;27.914;2022-08-04T04:42:17;12.10;;;6.63;;
63203;SDS011;49297;43.210;27.914;2022-08-04T04:45:28;8.18;;;5.22;;
63203;SDS011;49297;43.210;27.914;2022-08-04T04:47:46;7.72;;;5.18;;
63203;SDS011;49297;43.210;27.914;2022-08-04T04:50:20;5.93;;;4.95;;
63203;SDS011;49297;43.210;27.914;2022-08-04T04:52:57;12.50;;;5.68;;
63203;SDS011;49297;43.210;27.914;2022-08-04T04:55:32;11.27;;;6.15;;
63203;SDS011;49297;43.210;27.914;2022-08-04T04:58:04;6.90;;;5.55;;
63203;SDS011;49297;43.210;27.914;2022-08-04T05:01:12;18.15;;;6.40;;
63203;SDS011;49297;43.210;27.914;2022-08-04T05:16:01;6.00;;;4.47;;
63203;SDS011;49297;43.210;27.914;2022-08-04T05:18:34;4.82;;;4.15;;
63203;SDS011;49297;43.210;27.914;2022-08-04T05:21:07;4.20;;;3.80;;
63203;SDS011;49297;43.210;27.914;2022-08-04T05:23:48;4.50;;;3.55;;
63203;SDS011;49297;43.210;27.914;2022-08-04T05:26:19;3.63;;;3.20;;
63203;SDS011;49297;43.210;27.914;2022-08-04T05:28:56;11.07;;;3.60;;
63203;SDS011;49297;43.210;27.914;2022-08-04T05:31:36;20.55;;;3.70;;
63203;SDS011;49297;43.210;27.914;2022-08-04T05:34:08;3.53;;;3.03;;
63203;SDS011;49297;43.210;27.914;2022-08-04T05:36:39;4.40;;;2.78;;
63203;SDS011;49297;43.210;27.914;2022-08-04T05:39:30;3.72;;;2.55;;
63203;SDS011;49297;43.210;27.914;2022-08-04T05:42:00;8.60;;;3.00;;
63203;SDS011;49297;43.210;27.914;2022-08-04T05:44:28;5.78;;;3.33;;
63203;SDS011;49297;43.210;27.914;2022-08-04T05:46:56;3.95;;;3.33;;
63203;SDS011;49297;43.210;27.914;2022-08-04T05:49:24;2.67;;;2.38;;
63203;SDS011;49297;43.210;27.914;2022-08-04T05:51:52;7.28;;;3.92;;
63203;SDS011;49297;43.210;27.914;2022-08-04T05:54:19;12.85;;;3.60;;
63203;SDS011;49297;43.210;27.914;2022-08-04T05:56:46;5.32;;;3.42;;
63203;SDS011;49297;43.210;27.914;2022-08-04T05:59:13;6.32;;;2.85;;
63203;SDS011;49297;43.210;27.914;2022-08-04T06:01:42;9.85;;;5.65;;
63203;SDS011;49297;43.210;27.914;2022-08-04T06:04:10;3.38;;;3.08;;
63203;SDS011;49297;43.210;27.914;2022-08-04T06:06:38;29.10;;;5.93;;
63203;SDS011;49297;43.210;27.914;2022-08-04T06:09:05;21.48;;;7.50;;
63203;SDS011;49297;43.210;27.914;2022-08-04T06:11:33;8.65;;;4.38;;
63203;SDS011;49297;43.210;27.914;2022-08-04T06:14:01;10.07;;;4.55;;
63203;SDS011;49297;43.210;27.914;2022-08-04T06:16:39;18.88;;;5.10;;
63203;SDS011;49297;43.210;27.914;2022-08-04T06:19:08;4.47;;;3.33;;
63203;SDS011;49297;43.210;27.914;2022-08-04T06:21:38;4.68;;;3.25;;
63203;SDS011;49297;43.210;27.914;2022-08-04T06:24:11;3.45;;;2.90;;
63203;SDS011;49297;43.210;27.914;2022-08-04T06:26:39;5.18;;;3.83;;
63203;SDS011;49297;43.210;27.914;2022-08-04T06:29:06;5.82;;;4.18;;
63203;SDS011;49297;43.210;27.914;2022-08-04T06:31:41;4.55;;;3.63;;
63203;SDS011;49297;43.210;27.914;2022-08-04T06:34:12;3.38;;;3.00;;
63203;SDS011;49297;43.210;27.914;2022-08-04T06:36:40;5.00;;;3.10;;
63203;SDS011;49297;43.210;27.914;2022-08-04T06:39:07;6.50;;;3.40;;
63203;SDS011;49297;43.210;27.914;2022-08-04T06:41:34;4.82;;;3.00;;
63203;SDS011;49297;43.210;27.914;2022-08-04T06:44:02;6.90;;;3.67;;
63203;SDS011;49297;43.210;27.914;2022-08-04T06:46:31;6.85;;;3.13;;
63203;SDS011;49297;43.210;27.914;2022-08-04T06:48:59;8.32;;;3.20;;
63203;SDS011;49297;43.210;27.914;2022-08-04T06:51:26;3.15;;;2.85;;
63203;SDS011;49297;43.210;27.914;2022-08-04T06:53:54;4.05;;;3.05;;
63203;SDS011;49297;43.210;27.914;2022-08-04T06:56:20;5.63;;;3.03;;
63203;SDS011;49297;43.210;27.914;2022-08-04T06:58:49;5.35;;;2.75;;
63203;SDS011;49297;43.210;27.914;2022-08-04T07:01:18;5.00;;;2.85;;
63203;SDS011;49297;43.210;27.914;2022-08-04T07:03:45;4.88;;;3.22;;
63203;SDS011;49297;43.210;27.914;2022-08-04T07:06:12;6.03;;;3.42;;
63203;SDS011;49297;43.210;27.914;2022-08-04T07:08:38;4.50;;;4.05;;
63203;SDS011;49297;43.210;27.914;2022-08-04T07:11:05;6.07;;;3.15;;
63203;SDS011;49297;43.210;27.914;2022-08-04T07:13:31;12.10;;;3.65;;
63203;SDS011;49297;43.210;27.914;2022-08-04T07:15:58;9.82;;;4.15;;
63203;SDS011;49297;43.210;27.914;2022-08-04T07:18:25;5.57;;;2.88;;
63203;SDS011;49297;43.210;27.914;2022-08-04T07:20:51;5.50;;;3.42;;
63203;SDS011;49297;43.210;27.914;2022-08-04T07:23:21;8.05;;;3.83;;
63203;SDS011;49297;43.210;27.914;2022-08-04T07:25:54;3.20;;;2.90;;
63203;SDS011;49297;43.210;27.914;2022-08-04T07:28:31;3.65;;;3.22;;
63203;SDS011;49297;43.210;27.914;2022-08-04T07:30:57;4.88;;;2.65;;
63203;SDS011;49297;43.210;27.914;2022-08-04T07:33:23;3.92;;;3.35;;
63203;SDS011;49297;43.210;27.914;2022-08-04T07:35:53;4.93;;;3.63;;
63203;SDS011;49297;43.210;27.914;2022-08-04T07:38:21;9.68;;;3.15;;
63203;SDS011;49297;43.210;27.914;2022-08-04T07:40:47;3.65;;;2.85;;
63203;SDS011;49297;43.210;27.914;2022-08-04T07:43:15;7.88;;;3.28;;
63203;SDS011;49297;43.210;27.914;2022-08-04T07:45:42;7.00;;;3.67;;
63203;SDS011;49297;43.210;27.914;2022-08-04T07:48:08;7.10;;;4.03;;
63203;SDS011;49297;43.210;27.914;2022-08-04T07:50:35;3.28;;;2.83;;
63203;SDS011;49297;43.210;27.914;2022-08-04T07:53:02;3.75;;;2.67;;
63203;SDS011;49297;43.210;27.914;2022-08-04T07:55:29;4.97;;;3.03;;
63203;SDS011;49297;43.210;27.914;2022-08-04T07:57:55;4.70;;;3.38;;
63203;SDS011;49297;43.210;27.914;2022-08-04T08:00:21;3.67;;;2.88;;
63203;SDS011;49297;43.210;27.914;2022-08-04T08:02:48;3.30;;;3.10;;
63203;SDS011;49297;43.210;27.914;2022-08-04T08:05:15;4.00;;;3.35;;
63203;SDS011;49297;43.210;27.914;2022-08-04T08:07:47;6.80;;;3.58;;
63203;SDS011;49297;43.210;27.914;2022-08-04T08:10:14;12.43;;;3.72;;
63203;SDS011;49297;43.210;27.914;2022-08-04T08:12:41;3.13;;;2.78;;
63203;SDS011;49297;43.210;27.914;2022-08-04T08:15:09;3.10;;;2.80;;
63203;SDS011;49297;43.210;27.914;2022-08-04T08:17:39;8.18;;;3.88;;
63203;SDS011;49297;43.210;27.914;2022-08-04T08:20:06;5.15;;;4.68;;
63203;SDS011;49297;43.210;27.914;2022-08-04T08:22:37;3.83;;;3.20;;
63203;SDS011;49297;43.210;27.914;2022-08-04T08:25:04;3.97;;;2.88;;
63203;SDS011;49297;43.210;27.914;2022-08-04T08:27:30;8.50;;;3.78;;
63203;SDS011;49297;43.210;27.914;2022-08-04T08:29:56;6.10;;;2.72;;
63203;SDS011;49297;43.210;27.914;2022-08-04T08:32:22;7.50;;;4.15;;
63203;SDS011;49297;43.210;27.914;2022-08-04T08:34:48;3.25;;;2.53;;
63203;SDS011;49297;43.210;27.914;2022-08-04T08:40:09;5.20;;;3.25;;
63203;SDS011;49297;43.210;27.914;2022-08-04T08:48:32;2.67;;;2.47;;
63203;SDS011;49297;43.210;27.914;2022-08-04T08:51:11;3.25;;;2.58;;
63203;SDS011;49297;43.210;27.914;2022-08-04T09:05:05;5.97;;;3.50;;
63203;SDS011;49297;43.210;27.914;2022-08-04T09:07:52;3.53;;;3.22;;
63203;SDS011;49297;43.210;27.914;2022-08-04T09:10:41;22.65;;;4.18;;
63203;SDS011;49297;43.210;27.914;2022-08-04T09:16:44;3.72;;;3.05;;
63203;SDS011;49297;43.210;27.914;2022-08-04T09:18:52;3.55;;;3.25;;
63203;SDS011;49297;43.210;27.914;2022-08-04T09:21:37;13.70;;;4.20;;
63203;SDS011;49297;43.210;27.914;2022-08-04T09:24:17;7.22;;;4.15;;
63203;SDS011;49297;43.210;27.914;2022-08-04T09:27:02;4.55;;;4.13;;
63203;SDS011;49297;43.210;27.914;2022-08-04T09:35:22;6.85;;;3.13;;
63203;SDS011;49297;43.210;27.914;2022-08-04T09:43:46;3.67;;;3.15;;
63203;SDS011;49297;43.210;27.914;2022-08-04T09:49:03;5.03;;;3.63;;
63203;SDS011;49297;43.210;27.914;2022-08-04T09:54:22;3.72;;;3.42;;
63203;SDS011;49297;43.210;27.914;2022-08-04T10:00:09;4.47;;;3.58;;
63203;SDS011;49297;43.210;27.914;2022-08-04T10:02:56;6.70;;;3.75;;
63203;SDS011;49297;43.210;27.914;2022-08-04T10:05:26;7.45;;;3.53;;
63203;SDS011;49297;43.210;27.914;2022-08-04T10:08:28;6.45;;;3.33;;
63203;SDS011;49297;43.210;27.914;2022-08-04T10:11:32;6.78;;;3.40;;
63203;SDS011;49297;43.210;27.914;2022-08-04T10:19:45;5.43;;;3.50;;
63203;SDS011;49297;43.210;27.914;2022-08-04T10:22:56;3.65;;;3.35;;
63203;SDS011;49297;43.210;27.914;2022-08-04T10:28:25;7.65;;;3.30;;
63203;SDS011;49297;43.210;27.914;2022-08-04T10:31:00;5.32;;;3.42;;
63203;SDS011;49297;43.210;27.914;2022-08-04T10:33:53;6.50;;;3.60;;
63203;SDS011;49297;43.210;27.914;2022-08-04T10:36:22;7.32;;;3.90;;
63203;SDS011;49297;43.210;27.914;2022-08-04T10:39:02;4.65;;;3.58;;
63203;SDS011;49297;43.210;27.914;2022-08-04T10:41:35;5.88;;;3.47;;
63203;SDS011;49297;43.210;27.914;2022-08-04T10:44:17;3.28;;;2.97;;
63203;SDS011;49297;43.210;27.914;2022-08-04T10:47:07;4.82;;;3.50;;
63203;SDS011;49297;43.210;27.914;2022-08-04T10:49:45;3.65;;;3.35;;
63203;SDS011;49297;43.210;27.914;2022-08-04T10:55:20;3.15;;;2.88;;
63203;SDS011;49297;43.210;27.914;2022-08-04T10:57:58;4.20;;;3.80;;
63203;SDS011;49297;43.210;27.914;2022-08-04T11:00:28;4.03;;;3.72;;
63203;SDS011;49297;43.210;27.914;2022-08-04T11:03:07;4.32;;;3.92;;
63203;SDS011;49297;43.210;27.914;2022-08-04T11:05:48;3.97;;;3.53;;
63203;SDS011;49297;43.210;27.914;2022-08-04T11:08:41;4.55;;;3.80;;
63203;SDS011;49297;43.210;27.914;2022-08-04T11:11:32;4.82;;;4.32;;
63203;SDS011;49297;43.210;27.914;2022-08-04T11:14:06;3.78;;;3.42;;
63203;SDS011;49297;43.210;27.914;2022-08-04T11:16:45;6.55;;;4.07;;
63203;SDS011;49297;43.210;27.914;2022-08-04T11:19:24;5.55;;;3.83;;
63203;SDS011;49297;43.210;27.914;2022-08-04T11:21:59;5.90;;;3.38;;
63203;SDS011;49297;43.210;27.914;2022-08-04T11:24:39;4.75;;;3.53;;
63203;SDS011;49297;43.210;27.914;2022-08-04T11:27:24;3.50;;;3.20;;
63203;SDS011;49297;43.210;27.914;2022-08-04T11:30:03;4.45;;;4.05;;
63203;SDS011;49297;43.210;27.914;2022-08-04T11:38:27;3.97;;;3.67;;
63203;SDS011;49297;43.210;27.914;2022-08-04T11:41:08;4.32;;;3.47;;
63203;SDS011;49297;43.210;27.914;2022-08-04T11:43:53;3.33;;;3.05;;
63203;SDS011;49297;43.210;27.914;2022-08-04T11:46:22;8.60;;;3.75;;
63203;SDS011;49297;43.210;27.914;2022-08-04T11:48:57;5.13;;;3.53;;
63203;SDS011;49297;43.210;27.914;2022-08-04T11:51:29;4.32;;;3.92;;
63203;SDS011;49297;43.210;27.914;2022-08-04T11:53:57;5.00;;;3.20;;
63203;SDS011;49297;43.210;27.914;2022-08-04T11:56:24;4.63;;;3.35;;
63203;SDS011;49297;43.210;27.914;2022-08-04T11:58:52;10.98;;;3.95;;
63203;SDS011;49297;43.210;27.914;2022-08-04T12:01:23;9.05;;;3.90;;
63203;SDS011;49297;43.210;27.914;2022-08-04T12:06:48;6.18;;;3.70;;
63203;SDS011;49297;43.210;27.914;2022-08-04T12:12:38;3.92;;;3.50;;
63203;SDS011;49297;43.210;27.914;2022-08-04T12:15:27;4.78;;;3.30;;
63203;SDS011;49297;43.210;27.914;2022-08-04T12:18:03;4.20;;;3.30;;
63203;SDS011;49297;43.210;27.914;2022-08-04T12:20:33;4.20;;;3.80;;
63203;SDS011;49297;43.210;27.914;2022-08-04T12:23:05;3.42;;;3.05;;
63203;SDS011;49297;43.210;27.914;2022-08-04T12:25:47;5.70;;;3.67;;
63203;SDS011;49297;43.210;27.914;2022-08-04T12:31:00;6.25;;;3.70;;
63203;SDS011;49297;43.210;27.914;2022-08-04T12:33:44;4.05;;;3.60;;
63203;SDS011;49297;43.210;27.914;2022-08-04T12:36:23;4.30;;;3.92;;
63203;SDS011;49297;43.210;27.914;2022-08-04T12:41:38;2.92;;;2.72;;
63203;SDS011;49297;43.210;27.914;2022-08-04T12:44:09;3.33;;;3.03;;
63203;SDS011;49297;43.210;27.914;2022-08-04T12:46:38;4.00;;;3.60;;
63203;SDS011;49297;43.210;27.914;2022-08-04T12:49:09;5.53;;;3.65;;
63203;SDS011;49297;43.210;27.914;2022-08-04T12:51:39;4.47;;;3.08;;
63203;SDS011;49297;43.210;27.914;2022-08-04T12:54:09;4.60;;;3.20;;
63203;SDS011;49297;43.210;27.914;2022-08-04T12:56:36;4.45;;;3.53;;
63203;SDS011;49297;43.210;27.914;2022-08-04T12:59:08;4.18;;;3.20;;
63203;SDS011;49297;43.210;27.914;2022-08-04T13:01:36;4.22;;;3.05;;
63203;SDS011;49297;43.210;27.914;2022-08-04T13:04:19;6.50;;;3.63;;
63203;SDS011;49297;43.210;27.914;2022-08-04T13:06:51;5.65;;;3.88;;
63203;SDS011;49297;43.210;27.914;2022-08-04T13:09:21;5.70;;;4.13;;
63203;SDS011;49297;43.210;27.914;2022-08-04T13:11:58;4.13;;;3.72;;
63203;SDS011;49297;43.210;27.914;2022-08-04T13:14:27;5.72;;;4.90;;
63203;SDS011;49297;43.210;27.914;2022-08-04T13:16:59;5.47;;;4.07;;
63203;SDS011;49297;43.210;27.914;2022-08-04T13:19:26;3.67;;;3.38;;
63203;SDS011;49297;43.210;27.914;2022-08-04T13:21:53;4.25;;;3.72;;
63203;SDS011;49297;43.210;27.914;2022-08-04T13:24:22;7.05;;;4.45;;
63203;SDS011;49297;43.210;27.914;2022-08-04T13:26:59;6.53;;;4.50;;
63203;SDS011;49297;43.210;27.914;2022-08-04T13:29:36;4.43;;;4.03;;
63203;SDS011;49297;43.210;27.914;2022-08-04T13:32:04;4.75;;;3.35;;
63203;SDS011;49297;43.210;27.914;2022-08-04T13:34:31;4.18;;;3.55;;
63203;SDS011;49297;43.210;27.914;2022-08-04T13:36:58;4.50;;;4.00;;
63203;SDS011;49297;43.210;27.914;2022-08-04T13:39:26;4.72;;;3.80;;
63203;SDS011;49297;43.210;27.914;2022-08-04T13:41:54;4.20;;;3.65;;
63203;SDS011;49297;43.210;27.914;2022-08-04T13:44:24;6.28;;;4.47;;
63203;SDS011;49297;43.210;27.914;2022-08-04T13:46:54;10.15;;;5.38;;
63203;SDS011;49297;43.210;27.914;2022-08-04T13:49:23;5.65;;;3.67;;
63203;SDS011;49297;43.210;27.914;2022-08-04T13:51:58;5.50;;;4.50;;
63203;SDS011;49297;43.210;27.914;2022-08-04T13:54:38;4.05;;;3.63;;
63203;SDS011;49297;43.210;27.914;2022-08-04T13:57:10;5.03;;;4.50;;
63203;SDS011;49297;43.210;27.914;2022-08-04T13:59:39;7.15;;;4.72;;
63203;SDS011;49297;43.210;27.914;2022-08-04T14:02:11;4.47;;;4.07;;
63203;SDS011;49297;43.210;27.914;2022-08-04T14:04:56;4.03;;;3.65;;
63203;SDS011;49297;43.210;27.914;2022-08-04T14:07:29;4.35;;;3.63;;
63203;SDS011;49297;43.210;27.914;2022-08-04T14:09:56;4.97;;;4.40;;
63203;SDS011;49297;43.210;27.914;2022-08-04T14:12:22;4.55;;;3.72;;
63203;SDS011;49297;43.210;27.914;2022-08-04T14:14:49;3.63;;;3.03;;
63203;SDS011;49297;43.210;27.914;2022-08-04T14:17:24;4.72;;;4.22;;
63203;SDS011;49297;43.210;27.914;2022-08-04T14:19:57;4.88;;;3.75;;
63203;SDS011;49297;43.210;27.914;2022-08-04T14:27:42;5.50;;;4.13;;
63203;SDS011;49297;43.210;27.914;2022-08-04T14:33:04;6.75;;;4.35;;
63203;SDS011;49297;43.210;27.914;2022-08-04T14:35:33;5.68;;;4.70;;
63203;SDS011;49297;43.210;27.914;2022-08-04T14:38:01;4.63;;;4.15;;
63203;SDS011;49297;43.210;27.914;2022-08-04T14:40:29;6.70;;;3.78;;
63203;SDS011;49297;43.210;27.914;2022-08-04T14:42:57;5.25;;;4.60;;
63203;SDS011;49297;43.210;27.914;2022-08-04T14:45:33;5.25;;;4.38;;
63203;SDS011;49297;43.210;27.914;2022-08-04T14:48:07;5.10;;;4.63;;
63203;SDS011;49297;43.210;27.914;2022-08-04T14:50:39;4.90;;;4.40;;
63203;SDS011;49297;43.210;27.914;2022-08-04T14:53:08;5.40;;;4.70;;
63203;SDS011;49297;43.210;27.914;2022-08-04T14:55:39;5.00;;;4.20;;
63203;SDS011;49297;43.210;27.914;2022-08-04T14:58:27;4.88;;;4.47;;
63203;SDS011;49297;43.210;27.914;2022-08-04T15:01:01;5.20;;;4.00;;
63203;SDS011;49297;43.210;27.914;2022-08-04T15:03:29;7.05;;;5.40;;
63203;SDS011;49297;43.210;27.914;2022-08-04T15:05:56;5.75;;;4.63;;
63203;SDS011;49297;43.210;27.914;2022-08-04T15:08:24;5.78;;;4.18;;
63203;SDS011;49297;43.210;27.914;2022-08-04T15:10:52;5.13;;;4.32;;
63203;SDS011;49297;43.210;27.914;2022-08-04T15:13:23;4.50;;;4.20;;
63203;SDS011;49297;43.210;27.914;2022-08-04T15:15:50;6.10;;;4.65;;
63203;SDS011;49297;43.210;27.914;2022-08-04T15:18:16;4.45;;;4.07;;
63203;SDS011;49297;43.210;27.914;2022-08-04T15:20:42;5.50;;;4.93;;
63203;SDS011;49297;43.210;27.914;2022-08-04T15:23:08;5.18;;;4.78;;
63203;SDS011;49297;43.210;27.914;2022-08-04T15:25:35;5.45;;;4.85;;
63203;SDS011;49297;43.210;27.914;2022-08-04T15:28:04;4.45;;;4.05;;
63203;SDS011;49297;43.210;27.914;2022-08-04T15:30:36;5.40;;;3.70;;
63203;SDS011;49297;43.210;27.914;2022-08-04T15:33:03;4.63;;;4.22;;
63203;SDS011;49297;43.210;27.914;2022-08-04T15:35:31;5.10;;;4.38;;
63203;SDS011;49297;43.210;27.914;2022-08-04T15:40:28;5.88;;;3.88;;
63203;SDS011;49297;43.210;27.914;2022-08-04T15:43:04;4.10;;;3.78;;
63203;SDS011;49297;43.210;27.914;2022-08-04T15:53:24;4.32;;;3.97;;
63203;SDS011;49297;43.210;27.914;2022-08-04T15:55:51;6.28;;;5.78;;
63203;SDS011;49297;43.210;27.914;2022-08-04T15:58:19;9.68;;;4.55;;
63203;SDS011;49297;43.210;27.914;2022-08-04T16:24:21;5.13;;;4.68;;
63203;SDS011;49297;43.210;27.914;2022-08-04T16:26:50;5.82;;;5.25;;
63203;SDS011;49297;43.210;27.914;2022-08-04T16:37:01;5.68;;;5.15;;
63203;SDS011;49297;43.210;27.914;2022-08-04T16:39:28;8.73;;;5.50;;
63203;SDS011;49297;43.210;27.914;2022-08-04T16:41:55;7.03;;;5.47;;
63203;SDS011;49297;43.210;27.914;2022-08-04T16:44:31;7.35;;;5.28;;
63203;SDS011;49297;43.210;27.914;2022-08-04T16:47:01;7.57;;;4.75;;
63203;SDS011;49297;43.210;27.914;2022-08-04T16:49:28;5.10;;;4.50;;
63203;SDS011;49297;43.210;27.914;2022-08-04T16:52:05;5.30;;;4.72;;
63203;SDS011;49297;43.210;27.914;2022-08-04T16:54:33;4.72;;;4.20;;
63203;SDS011;49297;43.210;27.914;2022-08-04T16:57:06;6.97;;;5.10;;
63203;SDS011;49297;43.210;27.914;2022-08-04T16:59:33;7.05;;;4.78;;
63203;SDS011;49297;43.210;27.914;2022-08-04T17:02:00;6.63;;;6.13;;
63203;SDS011;49297;43.210;27.914;2022-08-04T17:04:28;8.18;;;5.53;;
63203;SDS011;49297;43.210;27.914;2022-08-04T17:06:57;5.43;;;4.93;;
63203;SDS011;49297;43.210;27.914;2022-08-04T17:09:27;5.83;;;4.40;;
63203;SDS011;49297;43.210;27.914;2022-08-04T17:11:54;4.93;;;4.45;;
63203;SDS011;49297;43.210;27.914;2022-08-04T17:14:23;4.97;;;4.43;;
63203;SDS011;49297;43.210;27.914;2022-08-04T17:16:50;5.63;;;5.03;;
63203;SDS011;49297;43.210;27.914;2022-08-04T17:19:18;5.15;;;4.10;;
63203;SDS011;49297;43.210;27.914;2022-08-04T17:21:44;4.80;;;4.40;;
63203;SDS011;49297;43.210;27.914;2022-08-04T17:24:11;6.30;;;5.57;;
63203;SDS011;49297;43.210;27.914;2022-08-04T17:26:38;4.65;;;4.25;;
63203;SDS011;49297;43.210;27.914;2022-08-04T17:29:05;5.30;;;4.90;;
63203;SDS011;49297;43.210;27.914;2022-08-04T17:31:31;5.53;;;5.05;;
63203;SDS011;49297;43.210;27.914;2022-08-04T17:34:00;10.75;;;4.57;;
63203;SDS011;49297;43.210;27.914;2022-08-04T17:36:32;4.65;;;3.65;;
63203;SDS011;49297;43.210;27.914;2022-08-04T17:39:02;8.95;;;5.68;;
63203;SDS011;49297;43.210;27.914;2022-08-04T17:41:37;5.35;;;4.85;;
63203;SDS011;49297;43.210;27.914;2022-08-04T17:44:03;6.45;;;5.75;;
63203;SDS011;49297;43.210;27.914;2022-08-04T17:46:41;9.40;;;4.82;;
63203;SDS011;49297;43.210;27.914;2022-08-04T17:49:10;6.10;;;5.50;;
63203;SDS011;49297;43.210;27.914;2022-08-04T17:51:57;6.22;;;4.60;;
63203;SDS011;49297;43.210;27.914;2022-08-04T17:56:52;6.45;;;5.85;;
63203;SDS011;49297;43.210;27.914;2022-08-04T18:01:52;6.18;;;4.70;;
63203;SDS011;49297;43.210;27.914;2022-08-04T18:12:23;5.85;;;5.35;;
63203;SDS011;49297;43.210;27.914;2022-08-04T18:14:53;6.50;;;4.85;;
63203;SDS011;49297;43.210;27.914;2022-08-04T18:20:06;6.85;;;5.10;;
63203;SDS011;49297;43.210;27.914;2022-08-04T18:22:38;5.90;;;5.40;;
63203;SDS011;49297;43.210;27.914;2022-08-04T18:25:08;6.10;;;5.50;;
63203;SDS011;49297;43.210;27.914;2022-08-04T18:27:45;5.07;;;4.68;;
63203;SDS011;49297;43.210;27.914;2022-08-04T18:30:15;5.85;;;5.07;;
63203;SDS011;49297;43.210;27.914;2022-08-04T18:32:41;6.88;;;6.18;;
63203;SDS011;49297;43.210;27.914;2022-08-04T18:35:07;5.97;;;5.40;;
63203;SDS011;49297;43.210;27.914;2022-08-04T18:37:34;7.63;;;6.55;;
63203;SDS011;49297;43.210;27.914;2022-08-04T18:40:01;6.07;;;4.80;;
63203;SDS011;49297;43.210;27.914;2022-08-04T18:42:26;7.68;;;4.80;;
63203;SDS011;49297;43.210;27.914;2022-08-04T18:44:52;6.60;;;5.90;;
63203;SDS011;49297;43.210;27.914;2022-08-04T18:47:22;5.60;;;5.10;;
63203;SDS011;49297;43.210;27.914;2022-08-04T18:49:49;7.20;;;4.85;;
63203;SDS011;49297;43.210;27.914;2022-08-04T18:52:16;5.70;;;5.20;;
63203;SDS011;49297;43.210;27.914;2022-08-04T18:54:43;7.38;;;5.10;;
63203;SDS011;49297;43.210;27.914;2022-08-04T18:57:08;5.68;;;5.18;;
63203;SDS011;49297;43.210;27.914;2022-08-04T18:59:34;6.13;;;5.55;;
63203;SDS011;49297;43.210;27.914;2022-08-04T19:02:00;5.28;;;4.85;;
63203;SDS011;49297;43.210;27.914;2022-08-04T19:04:26;7.65;;;5.22;;
63203;SDS011;49297;43.210;27.914;2022-08-04T19:06:52;5.32;;;4.93;;
63203;SDS011;49297;43.210;27.914;2022-08-04T19:09:17;5.53;;;5.13;;
63203;SDS011;49297;43.210;27.914;2022-08-04T19:11:43;7.15;;;6.53;;
63203;SDS011;49297;43.210;27.914;2022-08-04T19:14:09;6.60;;;6.00;;
63203;SDS011;49297;43.210;27.914;2022-08-04T19:16:35;8.55;;;5.35;;
63203;SDS011;49297;43.210;27.914;2022-08-04T19:19:02;5.95;;;5.40;;
63203;SDS011;49297;43.210;27.914;2022-08-04T19:21:29;5.93;;;4.97;;
63203;SDS011;49297;43.210;27.914;2022-08-04T19:23:56;5.97;;;5.25;;
63203;SDS011;49297;43.210;27.914;2022-08-04T19:26:22;5.82;;;4.82;;
63203;SDS011;49297;43.210;27.914;2022-08-04T19:28:50;6.22;;;5.63;;
63203;SDS011;49297;43.210;27.914;2022-08-04T19:31:17;6.78;;;5.40;;
63203;SDS011;49297;43.210;27.914;2022-08-04T19:33:43;6.30;;;5.68;;
63203;SDS011;49297;43.210;27.914;2022-08-04T19:36:09;13.55;;;8.82;;
63203;SDS011;49297;43.210;27.914;2022-08-04T19:38:36;8.25;;;7.55;;
63203;SDS011;49297;43.210;27.914;2022-08-04T19:41:03;8.93;;;8.02;;
63203;SDS011;49297;43.210;27.914;2022-08-04T19:43:30;8.00;;;7.22;;